createdAt,value
2022-08-07T00:04:24.809Z,99.57
2022-08-07T00:10:17.730Z,99.30
2022-08-07T00:15:38.361Z,98.73
2022-08-07T00:27:06.102Z,99.01
2022-08-07T00:29:45.873Z,98.76
2022-08-07T00:38:09.718Z,98.69
2022-08-07T00:44:01.151Z,99.44
2022-08-07T00:46:39.172Z,99.59
2022-08-07T00:52:20.009Z,98.38
2022-08-07T00:55:10.654Z,97.82
2022-08-07T01:01:02.677Z,100.00
2022-08-07T01:10:04.180Z,98.96
2022-08-07T01:15:04.255Z,99.76
2022-08-07T01:20:43.046Z,100.00
2022-08-07T01:26:13.156Z,100.00
2022-08-07T01:29:03.150Z,99.95
2022-08-07T01:37:21.785Z,100.00
2022-08-07T01:40:14.836Z,99.94
2022-08-07T01:45:49.962Z,100.00
2022-08-07T01:54:33.325Z,99.65
2022-08-07T01:57:08.255Z,100.00
2022-08-07T01:59:58.830Z,99.28
2022-08-07T02:08:26.939Z,98.50
2022-08-07T02:20:04.660Z,98.83
2022-08-07T02:26:10.429Z,98.00
2022-08-07T02:31:10.320Z,98.62
2022-08-07T02:36:51.943Z,100.00
2022-08-07T02:40:01.771Z,100.00
2022-08-07T02:42:34.859Z,100.00
2022-08-07T02:48:10.035Z,100.00
2022-08-07T02:53:43.681Z,100.00
2022-08-07T02:56:35.324Z,100.00
2022-08-07T03:02:06.639Z,100.00
2022-08-07T03:04:57.262Z,100.00
2022-08-07T03:08:07.370Z,100.00
2022-08-07T03:13:21.358Z,98.92
2022-08-07T03:16:14.341Z,99.82
2022-08-07T03:21:50.744Z,100.00
2022-08-07T03:24:39.478Z,99.79
2022-08-07T03:27:59.542Z,97.96
2022-08-07T03:33:03.149Z,95.71
2022-08-07T03:35:52.374Z,96.23
2022-08-07T03:44:01.547Z,98.13
2022-08-07T03:49:39.085Z,97.20
2022-08-07T03:55:12.255Z,96.30
2022-08-07T03:58:33.100Z,96.82
2022-08-07T04:00:59.437Z,96.71
2022-08-07T04:03:53.168Z,96.77
2022-08-07T04:06:40.652Z,97.04
2022-08-07T04:09:45.299Z,97.47
2022-08-07T04:15:02.145Z,97.80
2022-08-07T04:20:30.918Z,98.46
2022-08-07T04:23:21.134Z,97.32
2022-08-07T04:26:10.944Z,97.37
2022-08-07T04:32:03.240Z,97.48
2022-08-07T04:37:20.469Z,97.12
2022-08-07T04:40:08.841Z,96.47
2022-08-07T04:46:01.357Z,97.47
2022-08-07T04:48:46.272Z,96.25
2022-08-07T04:54:30.218Z,96.91
2022-08-07T05:00:18.941Z,97.28
2022-08-07T05:05:57.174Z,97.85
2022-08-07T05:11:58.148Z,97.20
2022-08-07T05:17:12.208Z,97.21
2022-08-07T05:22:49.188Z,97.96
2022-08-07T05:26:10.302Z,98.31
2022-08-07T05:34:05.718Z,98.93
2022-08-07T05:40:18.016Z,98.24
2022-08-07T05:45:46.154Z,97.93
2022-08-07T05:50:59.435Z,97.66
2022-08-07T05:56:36.890Z,97.42
2022-08-07T06:02:20.097Z,97.19
2022-08-07T06:05:11.020Z,96.80
2022-08-07T06:10:46.548Z,96.74
2022-08-07T06:22:15.116Z,97.28
2022-08-07T06:27:44.390Z,98.44
2022-08-07T06:30:32.080Z,98.16
2022-08-07T06:36:11.983Z,96.24
2022-08-07T06:42:00.474Z,95.50
2022-08-07T06:50:04.449Z,94.07
2022-08-07T06:55:53.989Z,93.26
2022-08-07T07:01:17.172Z,91.54
2022-08-07T07:07:00.683Z,89.17
2022-08-07T07:12:33.365Z,90.08
2022-08-07T07:20:58.169Z,87.00
2022-08-07T07:24:08.527Z,86.52
2022-08-07T07:29:55.756Z,87.41
2022-08-07T07:34:55.895Z,85.39
2022-08-07T07:40:29.813Z,81.91
2022-08-07T07:46:53.684Z,81.11
2022-08-07T07:48:48.541Z,81.23
2022-08-07T07:54:24.068Z,78.73
2022-08-07T07:57:15.598Z,78.95
2022-08-07T08:05:54.762Z,78.07
2022-08-07T08:11:59.492Z,77.36
2022-08-07T08:14:11.601Z,75.65
2022-08-07T08:17:56.230Z,75.51
2022-08-07T08:23:01.800Z,74.84
2022-08-07T08:28:46.181Z,74.87
2022-08-07T08:34:27.235Z,74.93
2022-08-07T08:40:00.048Z,77.11
2022-08-07T08:45:41.975Z,76.48
2022-08-07T08:51:26.163Z,75.85
2022-08-07T09:05:41.493Z,76.82
2022-08-07T09:11:43.720Z,75.54
2022-08-07T09:17:10.183Z,75.39
2022-08-07T09:24:28.681Z,77.28
2022-08-07T09:25:54.308Z,77.59
2022-08-07T09:37:05.437Z,78.05
2022-08-07T09:47:27.797Z,75.27
2022-08-07T09:54:40.189Z,75.92
2022-08-07T10:00:35.945Z,76.60
2022-08-07T10:04:03.670Z,75.23
2022-08-07T10:12:55.510Z,75.50
2022-08-07T10:19:03.065Z,74.50
2022-08-07T10:24:59.957Z,76.37
2022-08-07T10:27:56.871Z,75.63
2022-08-07T10:34:15.567Z,74.27
2022-08-07T10:40:02.895Z,74.32
2022-08-07T10:42:41.235Z,74.55
2022-08-07T10:45:44.784Z,75.37
2022-08-07T10:51:16.630Z,73.63
2022-08-07T10:54:09.645Z,74.01
2022-08-07T11:00:02.677Z,76.21
2022-08-07T11:02:57.265Z,76.52
2022-08-07T11:05:51.361Z,75.30
2022-08-07T11:11:35.958Z,74.47
2022-08-07T11:17:23.487Z,74.16
2022-08-07T11:20:13.565Z,73.40
2022-08-07T11:26:06.330Z,71.62
2022-08-07T11:31:40.113Z,72.23
2022-08-07T11:40:11.169Z,72.16
2022-08-07T11:46:11.393Z,68.37
2022-08-07T11:52:07.393Z,69.00
2022-08-07T11:58:00.443Z,68.37
2022-08-07T12:04:06.287Z,64.61
2022-08-07T12:09:49.662Z,64.25
2022-08-07T12:15:35.670Z,64.41
2022-08-07T12:21:55.047Z,66.61
2022-08-07T12:26:53.966Z,63.90
2022-08-07T12:32:32.388Z,65.68
2022-08-07T12:35:24.020Z,66.44
2022-08-07T12:41:00.898Z,65.10
2022-08-07T12:46:42.392Z,62.07
2022-08-07T12:49:39.701Z,61.55
2022-08-07T12:55:18.192Z,60.31
2022-08-07T13:01:00.086Z,62.56
2022-08-07T13:07:17.879Z,61.88
2022-08-07T13:10:37.992Z,62.33
2022-08-07T13:13:53.817Z,61.07
2022-08-07T13:19:50.519Z,60.61
2022-08-07T13:22:32.313Z,61.66
2022-08-07T13:28:18.656Z,62.94
2022-08-07T13:31:13.083Z,61.22
2022-08-07T13:36:46.220Z,60.74
2022-08-07T13:46:06.684Z,61.44
2022-08-07T13:51:27.050Z,62.01
2022-08-07T13:56:51.665Z,58.39
2022-08-07T14:02:29.782Z,58.29
2022-08-07T14:08:00.901Z,58.62
2022-08-07T14:11:14.530Z,58.25
2022-08-07T14:16:42.014Z,57.04
2022-08-07T14:22:34.752Z,57.83
2022-08-07T14:25:19.005Z,57.99
2022-08-07T14:30:59.980Z,59.06
2022-08-07T14:36:39.102Z,60.46
2022-08-07T14:42:20.379Z,60.66
2022-08-07T14:47:52.993Z,60.76
2022-08-07T14:54:05.880Z,61.16
2022-08-07T14:59:13.743Z,61.16
2022-08-07T15:04:56.777Z,62.29
2022-08-07T15:10:35.498Z,62.04
2022-08-07T15:16:19.803Z,62.17
2022-08-07T15:22:04.678Z,61.79
2022-08-07T15:27:37.177Z,60.30
2022-08-07T15:33:19.509Z,61.66
2022-08-07T15:39:03.675Z,59.11
2022-08-07T15:44:52.551Z,57.31
2022-08-07T15:50:37.823Z,56.98
2022-08-07T15:56:09.927Z,56.51
2022-08-07T16:02:01.735Z,56.47
2022-08-07T16:08:33.521Z,54.10
2022-08-07T16:10:37.250Z,54.74
2022-08-07T16:13:58.855Z,54.54
2022-08-07T16:19:41.964Z,55.90
2022-08-07T16:22:54.865Z,55.25
2022-08-07T16:25:56.161Z,57.24
2022-08-07T16:31:57.716Z,57.12
2022-08-07T16:38:09.565Z,58.00
2022-08-07T16:41:22.276Z,57.88
2022-08-07T16:50:52.624Z,59.61
2022-08-07T16:53:56.990Z,60.01
2022-08-07T16:56:37.627Z,60.24
2022-08-07T17:02:54.321Z,62.22
2022-08-07T17:09:08.573Z,62.39
2022-08-07T17:14:18.674Z,63.48
2022-08-07T17:17:05.695Z,62.56
2022-08-07T17:22:42.622Z,62.14
2022-08-07T17:28:22.171Z,62.10
2022-08-07T17:34:18.295Z,62.50
2022-08-07T17:36:59.908Z,62.72
2022-08-07T17:42:58.544Z,61.71
2022-08-07T17:48:30.643Z,61.77
2022-08-07T17:51:23.105Z,61.56
2022-08-07T17:57:18.937Z,62.86
2022-08-07T18:02:53.879Z,63.65
2022-08-07T18:08:33.278Z,63.61
2022-08-07T18:14:16.558Z,64.66
2022-08-07T18:17:10.855Z,64.44
2022-08-07T18:22:53.460Z,66.27
2022-08-07T18:28:58.743Z,66.49
2022-08-07T18:38:58.808Z,67.04
2022-08-07T18:43:12.159Z,67.51
2022-08-07T18:50:31.269Z,68.20
2022-08-07T18:57:31.588Z,69.35
2022-08-07T19:06:16.460Z,70.10
2022-08-07T19:12:06.147Z,70.22
2022-08-07T19:15:22.822Z,70.02
2022-08-07T19:21:09.613Z,71.02
2022-08-07T19:26:29.382Z,70.67
2022-08-07T19:32:18.018Z,71.54
2022-08-07T19:37:57.100Z,71.95
2022-08-07T19:43:45.024Z,72.12
2022-08-07T19:49:57.548Z,72.47
2022-08-07T19:55:14.465Z,73.56
2022-08-07T19:58:13.133Z,72.96
2022-08-07T20:03:43.893Z,72.55
2022-08-07T20:12:37.226Z,74.10
2022-08-07T20:15:33.039Z,73.62
2022-08-07T20:21:21.614Z,73.71
2022-08-07T20:24:06.075Z,74.04
2022-08-07T20:27:01.598Z,74.19
2022-08-07T20:32:54.695Z,74.39
2022-08-07T20:38:33.750Z,74.56
2022-08-07T20:41:23.873Z,74.97
2022-08-07T20:44:15.840Z,75.41
2022-08-07T20:50:02.023Z,75.98
2022-08-07T20:52:51.879Z,76.66
2022-08-07T20:55:40.714Z,76.90
2022-08-07T20:58:32.329Z,77.08
2022-08-07T21:01:23.252Z,76.46
2022-08-07T21:04:21.652Z,77.08
2022-08-07T21:10:00.161Z,78.19
2022-08-07T21:15:47.558Z,78.26
2022-08-07T21:21:11.815Z,78.60
2022-08-07T21:26:52.151Z,78.54
2022-08-07T21:32:46.624Z,78.72
2022-08-07T21:35:34.651Z,78.06
2022-08-07T21:44:14.702Z,79.02
2022-08-07T21:50:02.293Z,79.92
2022-08-07T21:55:40.071Z,80.75
2022-08-07T22:01:19.539Z,80.10
2022-08-07T22:07:03.422Z,80.84
2022-08-07T22:12:51.475Z,81.52
2022-08-07T22:18:26.829Z,80.87
2022-08-07T22:21:19.500Z,80.69
2022-08-07T22:26:58.366Z,81.46
2022-08-07T22:35:16.325Z,82.29
2022-08-07T22:43:51.510Z,83.63
2022-08-07T22:47:23.259Z,82.46
2022-08-07T22:50:29.002Z,82.96
2022-08-07T22:54:06.452Z,83.19
2022-08-07T23:02:50.331Z,82.14
2022-08-07T23:06:09.091Z,82.47
2022-08-07T23:12:00.184Z,82.08
2022-08-07T23:18:03.092Z,83.73
2022-08-07T23:24:11.793Z,83.29
2022-08-07T23:30:38.975Z,84.17
2022-08-07T23:36:29.128Z,84.08
2022-08-07T23:48:43.487Z,85.05
2022-08-07T23:53:00.428Z,85.01
2022-08-07T23:57:20.169Z,85.55
